Time;durP1;ratioP1;P1;durP2;ratioP2;P2;SDS_P1;SDS_P2;PMS_P1;PMS_P2;Temp;Humidity;BMP_temperature;BMP_pressure;BME280_temperature;BME280_humidity;BME280_pressure;Samples;Min_cycle;Max_cycle;Signal;HPM_P1;HPM_P2
2022/07/14 00:02:06;;;;;;;3.25;0.90;;;22.70;69.90;;;;;;6863419;28;20479;-78
2022/07/14 00:05:29;;;;;;;2.60;1.00;;;22.70;69.90;;;;;;6863697;28;20483;-79
2022/07/14 00:08:51;;;;;;;3.30;1.10;;;22.80;70.50;;;;;;6862181;28;20473;-80
2022/07/14 00:12:13;;;;;;;3.13;1.00;;;22.70;72.50;;;;;;6862963;28;20439;-79
2022/07/14 00:15:36;;;;;;;3.77;1.00;;;22.70;72.10;;;;;;6863515;28;20757;-79
2022/07/14 00:18:58;;;;;;;3.30;1.00;;;22.70;70.30;;;;;;6862254;28;20436;-80
2022/07/14 00:22:21;;;;;;;6.72;1.27;;;22.70;71.30;;;;;;6861115;28;20889;-79
2022/07/14 00:25:43;;;;;;;3.70;1.02;;;22.80;69.80;;;;;;6861713;28;20484;-80
2022/07/14 00:29:05;;;;;;;3.60;1.20;;;22.90;70.10;;;;;;6863114;28;20444;-80
2022/07/14 00:32:27;;;;;;;3.25;1.00;;;22.90;70.20;;;;;;6862319;28;20471;-78
2022/07/14 00:35:49;;;;;;;2.75;1.10;;;22.90;72.10;;;;;;6861816;28;20484;-78
2022/07/14 00:39:13;;;;;;;3.00;1.20;;;22.80;72.40;;;;;;6863241;28;20471;-79
2022/07/14 00:42:37;;;;;;;4.78;1.25;;;22.70;72.90;;;;;;6861648;28;20514;-80
2022/07/14 00:45:59;;;;;;;3.60;1.00;;;22.50;73.50;;;;;;6862163;28;20478;-79
2022/07/14 00:49:36;;;;;;;2.50;1.00;;;22.40;74.00;;;;;;6862793;28;20428;-80
2022/07/14 00:52:59;;;;;;;2.60;1.00;;;22.40;74.00;;;;;;6862162;28;20523;-80
2022/07/14 00:56:22;;;;;;;3.13;1.10;;;22.40;74.60;;;;;;6861564;28;20918;-79
2022/07/14 00:59:45;;;;;;;2.70;1.00;;;22.40;73.70;;;;;;6862697;28;20933;-80
2022/07/14 01:03:07;;;;;;;3.40;1.00;;;22.50;74.30;;;;;;6862188;28;20469;-79
2022/07/14 01:06:29;;;;;;;2.35;0.90;;;22.50;74.70;;;;;;6858971;28;20486;-79
2022/07/14 01:09:51;;;;;;;2.85;0.90;;;22.50;74.20;;;;;;6862020;28;20851;-80
2022/07/14 01:13:15;;;;;;;2.90;1.00;;;22.50;73.80;;;;;;6860296;28;20483;-78
2022/07/14 01:16:37;;;;;;;2.25;0.90;;;22.40;74.00;;;;;;6877746;28;20480;-80
2022/07/14 01:19:59;;;;;;;2.60;1.00;;;22.30;74.80;;;;;;6888798;28;20952;-79
2022/07/14 01:23:22;;;;;;;2.70;0.98;;;22.20;75.10;;;;;;6862463;28;20478;-79
2022/07/14 01:26:44;;;;;;;3.17;1.00;;;22.10;75.80;;;;;;6860714;28;20949;-79
2022/07/14 01:30:08;;;;;;;3.75;1.10;;;22.10;76.00;;;;;;6862450;28;20476;-79
2022/07/14 01:33:30;;;;;;;3.40;1.30;;;22.10;75.80;;;;;;6861902;28;20485;-78
2022/07/14 01:36:53;;;;;;;3.53;1.05;;;22.20;73.90;;;;;;6861446;28;20440;-77
2022/07/14 01:40:16;;;;;;;4.60;1.25;;;22.20;72.50;;;;;;6859590;28;20779;-78
2022/07/14 01:43:39;;;;;;;4.60;1.30;;;22.20;71.90;;;;;;6860976;28;20436;-79
2022/07/14 01:47:01;;;;;;;2.47;1.13;;;22.20;72.70;;;;;;6861374;28;20444;-77
2022/07/14 01:50:23;;;;;;;2.13;0.93;;;22.20;72.30;;;;;;6860647;28;20438;-79
2022/07/14 01:53:45;;;;;;;2.83;1.20;;;22.20;73.00;;;;;;6860217;28;20495;-78
2022/07/14 01:57:09;;;;;;;2.60;1.00;;;22.20;72.80;;;;;;6859889;28;20495;-80
2022/07/14 02:00:31;;;;;;;3.35;1.10;;;22.20;72.70;;;;;;6860035;28;20484;-78
2022/07/14 02:03:53;;;;;;;3.60;1.15;;;22.10;73.70;;;;;;6858970;28;20443;-79
2022/07/14 02:07:15;;;;;;;3.25;1.05;;;22.00;74.70;;;;;;6860705;28;20486;-79
2022/07/14 02:14:18;;;;;;;3.38;1.00;;;21.80;75.50;;;;;;6860429;28;20463;-79
2022/07/14 02:17:40;;;;;;;2.50;0.93;;;21.80;75.20;;;;;;6859916;28;20444;-78
2022/07/14 02:21:02;;;;;;;2.75;1.10;;;21.90;75.40;;;;;;6859017;28;20436;-78
2022/07/14 02:24:25;;;;;;;1.95;0.82;;;21.80;75.10;;;;;;6859537;28;20468;-80
2022/07/14 02:27:47;;;;;;;3.50;0.90;;;21.70;75.40;;;;;;6860277;28;20490;-79
2022/07/14 02:31:10;;;;;;;3.67;1.00;;;21.60;76.20;;;;;;6855795;28;20469;-80
2022/07/14 02:34:32;;;;;;;3.20;1.05;;;21.40;76.80;;;;;;6859199;28;20436;-80
2022/07/14 02:37:54;;;;;;;2.60;0.90;;;21.20;78.80;;;;;;6859204;28;20529;-80
2022/07/14 02:41:16;;;;;;;3.47;1.10;;;20.90;80.10;;;;;;6859628;28;20972;-79
2022/07/14 02:44:38;;;;;;;2.95;1.00;;;20.80;80.80;;;;;;6858581;28;20503;-80
2022/07/14 02:48:03;;;;;;;3.22;1.05;;;20.70;81.50;;;;;;6857946;28;20896;-78
2022/07/14 02:51:25;;;;;;;3.63;1.10;;;20.80;82.40;;;;;;6858918;28;20478;-79
2022/07/14 02:54:47;;;;;;;4.70;1.10;;;20.70;82.00;;;;;;6858497;28;20544;-79
2022/07/14 02:58:09;;;;;;;2.87;1.00;;;20.70;81.60;;;;;;6859915;28;20432;-79
2022/07/14 03:01:31;;;;;;;3.30;1.20;;;20.70;82.80;;;;;;6858639;28;20436;-79
2022/07/14 03:04:54;;;;;;;3.05;1.10;;;20.70;83.20;;;;;;6858997;28;20471;-79
2022/07/14 03:08:18;;;;;;;4.05;1.20;;;20.60;83.50;;;;;;6859088;28;20468;-79
2022/07/14 03:11:40;;;;;;;3.40;1.00;;;20.70;84.30;;;;;;6858027;28;20436;-79
2022/07/14 03:15:02;;;;;;;3.60;1.10;;;20.60;83.70;;;;;;6858842;28;20490;-78
2022/07/14 03:18:25;;;;;;;3.63;1.20;;;20.60;84.00;;;;;;6859455;28;20446;-79
2022/07/14 03:21:49;;;;;;;2.10;1.08;;;20.50;84.00;;;;;;6859692;28;20795;-78
2022/07/14 03:25:11;;;;;;;5.23;1.13;;;20.50;83.80;;;;;;6856847;28;21001;-78
2022/07/14 03:28:33;;;;;;;3.10;1.20;;;20.50;84.40;;;;;;6858132;28;20960;-77
2022/07/14 03:31:56;;;;;;;3.17;1.10;;;20.40;85.10;;;;;;6862008;28;20918;-78
2022/07/14 03:35:19;;;;;;;3.55;1.25;;;20.40;85.70;;;;;;6863594;28;20940;-76
2022/07/14 03:38:42;;;;;;;3.20;1.20;;;20.30;85.90;;;;;;6864709;28;20435;-79
2022/07/14 03:42:04;;;;;;;3.03;1.10;;;20.40;85.90;;;;;;6864232;28;20447;-79
2022/07/14 03:45:26;;;;;;;3.95;1.15;;;20.30;86.40;;;;;;6862868;28;20484;-77
2022/07/14 03:48:49;;;;;;;3.25;1.10;;;20.10;87.20;;;;;;6863130;28;20498;-77
2022/07/14 03:52:11;;;;;;;2.55;1.23;;;19.90;88.10;;;;;;6864360;28;20432;-77
2022/07/14 03:55:34;;;;;;;3.33;1.10;;;19.80;89.20;;;;;;6865315;28;20443;-78
2022/07/14 03:58:56;;;;;;;3.40;1.00;;;19.70;89.50;;;;;;6862750;28;20498;-77
2022/07/14 04:02:18;;;;;;;2.93;1.30;;;19.80;88.70;;;;;;6864224;28;20432;-78
2022/07/14 04:05:41;;;;;;;3.00;1.10;;;19.90;89.20;;;;;;6863679;28;20803;-79
2022/07/14 04:09:04;;;;;;;3.53;1.23;;;19.90;89.30;;;;;;6864158;28;20447;-78
2022/07/14 04:12:27;;;;;;;3.13;1.20;;;20.00;89.10;;;;;;6863083;28;20440;-79
2022/07/14 04:15:49;;;;;;;2.60;1.10;;;20.00;88.60;;;;;;6863565;28;20446;-77
2022/07/14 04:19:11;;;;;;;3.20;1.10;;;20.00;88.80;;;;;;6863480;28;20474;-77
2022/07/14 04:22:33;;;;;;;3.20;1.00;;;20.10;88.50;;;;;;6863636;28;20476;-80
2022/07/14 04:25:56;;;;;;;3.00;1.15;;;20.10;87.90;;;;;;6862023;28;20484;-78
2022/07/14 04:29:19;;;;;;;3.30;1.20;;;20.20;87.20;;;;;;6863290;28;20486;-77
2022/07/14 04:32:42;;;;;;;3.25;1.08;;;20.20;87.10;;;;;;6863310;28;20440;-81
2022/07/14 04:36:05;;;;;;;3.10;1.10;;;20.20;87.00;;;;;;6863818;28;20440;-80
2022/07/14 04:39:27;;;;;;;3.25;1.15;;;20.10;87.00;;;;;;6874651;28;20440;-76
2022/07/14 04:42:49;;;;;;;2.78;0.95;;;20.10;88.50;;;;;;6862722;28;20488;-76
2022/07/14 04:46:12;;;;;;;3.35;1.40;;;20.10;89.40;;;;;;6863415;28;20504;-77
2022/07/14 04:53:14;;;;;;;3.75;1.20;;;20.10;90.30;;;;;;6890395;28;20446;-77
2022/07/14 04:56:36;;;;;;;3.90;1.50;;;20.10;90.40;;;;;;6889726;28;20556;-78
2022/07/14 04:59:58;;;;;;;4.60;1.70;;;20.00;91.10;;;;;;6868741;28;20436;-79
2022/07/14 05:03:22;;;;;;;4.30;1.60;;;19.90;91.70;;;;;;6859731;28;20479;-80
2022/07/14 05:06:46;;;;;;;4.45;1.65;;;19.90;92.20;;;;;;6889021;28;20540;-80
2022/07/14 05:10:09;;;;;;;3.40;1.70;;;19.90;92.80;;;;;;6889458;28;20437;-79
2022/07/14 05:13:31;;;;;;;4.85;1.52;;;19.80;93.10;;;;;;6877484;28;20488;-80
2022/07/14 05:16:53;;;;;;;4.17;1.80;;;19.90;93.20;;;;;;6862187;28;20439;-78
2022/07/14 05:20:16;;;;;;;4.75;1.90;;;19.90;93.40;;;;;;6862392;28;20471;-79
2022/07/14 05:23:38;;;;;;;4.68;1.90;;;19.90;93.70;;;;;;6861071;28;20447;-79
2022/07/14 05:27:00;;;;;;;5.50;1.80;;;20.00;93.80;;;;;;6860821;28;20483;-77
2022/07/14 05:30:23;;;;;;;6.20;1.90;;;20.00;93.80;;;;;;6861798;28;20795;-79
2022/07/14 05:33:45;;;;;;;5.63;1.92;;;20.10;93.80;;;;;;6861024;28;20498;-78
2022/07/14 05:37:09;;;;;;;14.18;8.30;;;20.10;93.80;;;;;;6861451;28;20440;-79
2022/07/14 05:40:31;;;;;;;20.23;11.45;;;20.20;93.40;;;;;;6861770;28;20439;-80
2022/07/14 05:43:53;;;;;;;5.43;2.65;;;20.30;92.90;;;;;;6869543;28;20542;-77
2022/07/14 05:47:16;;;;;;;6.60;3.22;;;20.30;92.80;;;;;;6861219;28;20922;-80
2022/07/14 05:50:38;;;;;;;4.80;2.50;;;20.40;92.80;;;;;;6887991;28;20485;-78
2022/07/14 05:54:01;;;;;;;5.55;2.13;;;20.50;92.70;;;;;;6873072;28;20439;-78
2022/07/14 05:57:23;;;;;;;5.40;1.70;;;20.60;92.70;;;;;;6887940;28;20892;-79
2022/07/14 06:00:45;;;;;;;4.22;1.63;;;20.60;92.70;;;;;;6870362;28;20439;-79
2022/07/14 06:04:07;;;;;;;5.00;1.40;;;20.70;92.90;;;;;;6871482;28;20492;-79
2022/07/14 06:07:29;;;;;;;5.45;1.50;;;20.70;92.10;;;;;;6860671;28;20495;-79
2022/07/14 06:10:55;;;;;;;3.60;1.40;;;20.80;91.60;;;;;;6860682;28;20775;-79
2022/07/14 06:14:17;;;;;;;3.40;1.38;;;20.90;90.70;;;;;;6860638;28;20432;-79
2022/07/14 06:17:39;;;;;;;3.30;1.30;;;21.00;90.60;;;;;;6857768;28;20462;-80
2022/07/14 06:21:01;;;;;;;3.85;1.33;;;21.10;89.60;;;;;;6858868;28;20473;-79
2022/07/14 06:24:24;;;;;;;3.90;1.48;;;21.20;89.50;;;;;;6860535;28;20479;-80
2022/07/14 06:27:47;;;;;;;3.70;1.33;;;21.30;88.20;;;;;;6887064;28;20470;-77
2022/07/14 06:31:10;;;;;;;3.43;1.40;;;21.40;87.00;;;;;;6887908;28;20977;-77
2022/07/14 06:34:32;;;;;;;4.10;1.50;;;21.50;86.30;;;;;;6878020;28;21004;-78
2022/07/14 06:37:54;;;;;;;3.65;1.50;;;21.60;84.00;;;;;;6886963;28;20916;-75
2022/07/14 06:41:16;;;;;;;4.10;1.27;;;21.70;84.10;;;;;;6887176;28;20434;-79
2022/07/14 06:44:39;;;;;;;3.47;1.30;;;21.90;81.90;;;;;;6883970;28;20434;-77
2022/07/14 06:48:01;;;;;;;3.00;1.10;;;22.00;81.50;;;;;;6859811;28;20565;-81
2022/07/14 06:51:23;;;;;;;3.22;1.20;;;22.10;80.70;;;;;;6859342;28;20435;-79
2022/07/14 06:54:45;;;;;;;3.60;1.33;;;22.20;79.30;;;;;;6860292;28;20443;-76
2022/07/14 06:58:07;;;;;;;3.70;1.20;;;22.30;80.20;;;;;;6860078;28;20466;-78
2022/07/14 07:01:32;;;;;;;5.15;1.30;;;22.40;80.00;;;;;;6859667;28;20432;-79
2022/07/14 07:08:30;;;;;;;3.43;1.37;;;22.60;79.20;;;;;;6864369;28;20440;-79
2022/07/14 07:11:52;;;;;;;4.22;1.42;;;22.70;78.80;;;;;;6873318;28;20472;-76
2022/07/14 07:15:14;;;;;;;4.05;1.10;;;22.80;78.80;;;;;;6879894;28;20465;-76
2022/07/14 07:18:38;;;;;;;4.53;1.40;;;22.90;78.40;;;;;;6887002;28;20430;-80
2022/07/14 07:22:00;;;;;;;2.90;1.20;;;22.90;78.70;;;;;;6868964;28;20441;-79
2022/07/14 07:25:22;;;;;;;3.20;1.40;;;23.00;78.70;;;;;;6868276;28;20476;-76
2022/07/14 07:28:44;;;;;;;3.60;1.20;;;23.10;78.80;;;;;;6885042;28;20481;-79
2022/07/14 07:32:07;;;;;;;4.32;1.40;;;23.10;78.50;;;;;;6869062;28;20845;-78
2022/07/14 07:35:31;;;;;;;3.80;1.40;;;23.20;78.50;;;;;;6885785;28;20472;-78
2022/07/14 07:38:53;;;;;;;4.20;1.25;;;23.20;77.80;;;;;;6860313;28;20475;-77
2022/07/14 07:42:15;;;;;;;3.93;1.40;;;23.40;77.60;;;;;;6859051;28;20486;-79
2022/07/14 07:45:37;;;;;;;5.93;1.40;;;23.40;77.20;;;;;;6858410;28;20462;-77
2022/07/14 07:48:59;;;;;;;4.20;1.17;;;23.50;77.70;;;;;;6858701;28;20448;-82
2022/07/14 07:52:22;;;;;;;4.23;1.30;;;23.60;78.80;;;;;;6859204;28;20436;-76
2022/07/14 07:55:44;;;;;;;3.17;1.23;;;23.80;78.90;;;;;;6858080;28;20440;-78
2022/07/14 07:59:07;;;;;;;3.77;1.40;;;23.90;78.80;;;;;;6858276;28;20446;-85
2022/07/14 08:02:29;;;;;;;3.30;1.30;;;24.00;78.80;;;;;;6840604;28;20452;-85
2022/07/14 08:05:51;;;;;;;5.18;1.50;;;24.10;78.50;;;;;;6829728;29;20804;-84
2022/07/14 08:09:14;;;;;;;4.05;1.30;;;24.20;77.00;;;;;;6829098;29;20449;-84
2022/07/14 08:12:38;;;;;;;3.97;1.37;;;24.20;75.40;;;;;;6829288;29;20438;-83
2022/07/14 08:16:00;;;;;;;3.83;1.27;;;24.30;76.60;;;;;;6847177;28;20514;-84
2022/07/14 08:19:23;;;;;;;2.70;1.20;;;24.40;75.90;;;;;;6861803;28;20502;-85
2022/07/14 08:22:45;;;;;;;4.30;1.23;;;24.50;76.80;;;;;;6860842;28;20439;-86
2022/07/14 08:26:10;;;;;;;4.80;1.25;;;24.60;75.70;;;;;;6859714;28;20974;-82
2022/07/14 08:29:32;;;;;;;4.43;1.40;;;24.70;73.30;;;;;;6860056;28;20454;-83
2022/07/14 08:32:54;;;;;;;2.93;1.23;;;24.80;70.70;;;;;;6860370;28;20466;-84
2022/07/14 08:36:16;;;;;;;4.38;1.10;;;24.90;72.20;;;;;;6863559;28;20443;-86
2022/07/14 08:39:38;;;;;;;3.95;1.20;;;25.00;70.40;;;;;;6859464;28;20536;-78
2022/07/14 08:43:02;;;;;;;2.80;1.10;;;25.10;70.20;;;;;;6859491;28;20478;-77
2022/07/14 08:46:25;;;;;;;2.22;1.00;;;25.30;67.20;;;;;;6858584;28;20451;-79
2022/07/14 08:49:47;;;;;;;3.80;1.10;;;25.40;67.10;;;;;;6857881;28;20511;-78
2022/07/14 08:53:12;;;;;;;3.30;1.27;;;25.50;66.70;;;;;;6857366;28;20869;-79
2022/07/14 08:56:34;;;;;;;4.10;1.07;;;25.60;67.90;;;;;;6859282;28;20926;-78
2022/07/14 08:59:57;;;;;;;3.38;1.10;;;25.60;66.90;;;;;;6859059;28;20446;-79
2022/07/14 09:03:19;;;;;;;3.72;1.15;;;25.80;67.10;;;;;;6857613;28;20445;-78
2022/07/14 09:06:51;;;;;;;2.90;1.10;;;25.90;65.20;;;;;;6858739;28;20436;-79
2022/07/14 09:10:17;;;;;;;3.10;1.20;;;25.90;64.70;;;;;;6858876;28;20463;-79
2022/07/14 09:13:39;;;;;;;3.75;1.10;;;26.00;64.10;;;;;;6856854;28;20451;-78
2022/07/14 09:17:20;;;;;;;2.83;1.10;;;26.00;64.20;;;;;;6858542;28;20440;-78
2022/07/14 09:20:42;;;;;;;4.35;1.13;;;26.10;63.40;;;;;;6857471;28;20476;-79
2022/07/14 09:24:07;;;;;;;2.20;1.00;;;26.20;62.30;;;;;;6858190;28;20443;-76
2022/07/14 09:27:29;;;;;;;3.72;1.10;;;26.40;61.70;;;;;;6857776;28;21028;-75
2022/07/14 09:30:53;;;;;;;4.25;1.20;;;26.50;62.60;;;;;;6858093;28;20459;-75
2022/07/14 09:34:29;;;;;;;3.03;1.10;;;26.70;60.00;;;;;;6857268;28;20515;-79
2022/07/14 09:37:54;;;;;;;3.42;1.20;;;26.70;59.30;;;;;;6857037;28;20439;-78
2022/07/14 09:41:17;;;;;;;3.63;1.00;;;26.90;60.80;;;;;;6857580;28;20479;-78
2022/07/14 09:44:41;;;;;;;5.45;1.20;;;26.90;61.50;;;;;;6858105;28;20443;-77
2022/07/14 09:48:07;;;;;;;2.03;0.80;;;27.00;59.70;;;;;;6856231;28;20448;-74
2022/07/14 09:51:31;;;;;;;3.55;1.00;;;27.20;58.40;;;;;;6855384;28;20454;-77
2022/07/14 09:54:53;;;;;;;3.83;1.20;;;27.30;57.80;;;;;;6857924;28;20468;-78
2022/07/14 09:58:16;;;;;;;2.78;1.10;;;27.40;57.80;;;;;;6857828;28;20453;-78
2022/07/14 10:01:38;;;;;;;3.67;1.42;;;27.40;57.20;;;;;;6857324;28;20833;-78
2022/07/14 10:05:05;;;;;;;3.33;1.23;;;27.40;58.20;;;;;;6856416;28;20495;-77
2022/07/14 10:08:31;;;;;;;4.00;1.20;;;27.50;57.30;;;;;;6857180;28;20666;-79
2022/07/14 10:11:53;;;;;;;3.05;1.20;;;27.60;55.80;;;;;;6855084;28;20514;-79
2022/07/14 10:15:16;;;;;;;3.13;1.10;;;27.70;55.10;;;;;;6856559;28;20444;-80
2022/07/14 10:18:38;;;;;;;3.87;1.30;;;27.80;54.80;;;;;;6855863;28;20447;-79
2022/07/14 10:22:01;;;;;;;3.72;1.15;;;27.80;54.80;;;;;;6857502;28;20471;-77
2022/07/14 10:25:25;;;;;;;4.40;1.10;;;28.00;54.20;;;;;;6855127;28;21224;-78
2022/07/14 10:28:47;;;;;;;3.75;1.30;;;28.10;54.10;;;;;;6856246;28;21050;-79
2022/07/14 10:32:36;;;;;;;3.60;1.10;;;28.20;55.00;;;;;;6857037;28;20474;-80
2022/07/14 10:36:15;;;;;;;3.15;1.10;;;28.30;52.70;;;;;;6856948;28;20459;-77
2022/07/14 10:39:48;;;;;;;3.40;1.07;;;28.50;53.00;;;;;;6856311;28;20535;-78
2022/07/14 10:43:17;;;;;;;3.95;1.00;;;28.50;51.70;;;;;;6854653;28;20957;-79
2022/07/14 10:46:42;;;;;;;3.88;1.20;;;28.60;49.80;;;;;;6882321;28;20484;-77
2022/07/14 10:50:09;;;;;;;3.10;1.00;;;28.70;50.00;;;;;;6880797;28;20511;-76
2022/07/14 10:53:31;;;;;;;4.43;1.08;;;28.80;48.60;;;;;;6882792;28;20470;-77
2022/07/14 10:57:12;;;;;;;2.20;1.10;;;28.90;48.20;;;;;;6828967;29;20453;-79
2022/07/14 11:01:01;;;;;;;5.13;1.20;;;28.90;48.00;;;;;;6828721;29;20444;-79
2022/07/14 11:05:01;;;;;;;3.55;1.08;;;29.00;48.80;;;;;;6828868;29;20437;-78
2022/07/14 11:08:23;;;;;;;3.50;1.20;;;29.00;50.10;;;;;;6828745;28;20939;-78
2022/07/14 11:12:24;;;;;;;3.80;1.10;;;29.10;48.10;;;;;;6854967;28;20461;-78
2022/07/14 11:15:51;;;;;;;3.45;1.02;;;29.10;48.80;;;;;;6843521;28;20880;-76
2022/07/14 11:19:25;;;;;;;14.90;8.13;;;29.20;47.60;;;;;;6854690;28;20446;-77
2022/07/14 11:23:17;;;;;;;5.75;1.25;;;29.30;47.00;;;;;;6854644;28;20459;-78
2022/07/14 11:26:42;;;;;;;2.60;1.10;;;29.40;45.80;;;;;;6854800;28;20504;-75
2022/07/14 11:30:26;;;;;;;3.72;1.00;;;29.50;46.30;;;;;;6854991;28;20448;-76
2022/07/14 11:37:33;;;;;;;2.67;1.02;;;29.80;46.00;;;;;;6873410;28;20848;-78
2022/07/14 11:40:55;;;;;;;4.93;1.10;;;29.80;45.20;;;;;;6855214;28;20443;-75
2022/07/14 11:44:54;;;;;;;3.50;1.00;;;29.90;44.60;;;;;;6854872;28;20451;-78
2022/07/14 11:48:17;;;;;;;2.67;1.00;;;30.00;45.20;;;;;;6855292;28;20499;-76
2022/07/14 11:51:40;;;;;;;4.30;1.10;;;30.20;45.50;;;;;;6854488;28;20898;-78
2022/07/14 11:55:10;;;;;;;4.47;1.10;;;30.30;43.70;;;;;;6859488;28;20471;-77
2022/07/14 11:58:33;;;;;;;5.95;1.00;;;30.30;43.20;;;;;;6887467;28;20437;-79
2022/07/14 12:02:07;;;;;;;4.88;1.10;;;30.30;42.50;;;;;;6863419;28;20443;-79
2022/07/14 12:05:30;;;;;;;3.30;1.20;;;30.50;43.10;;;;;;6865637;28;20482;-79
2022/07/14 12:08:53;;;;;;;3.13;1.08;;;30.60;43.40;;;;;;6878324;28;20443;-79
2022/07/14 12:12:19;;;;;;;2.97;1.00;;;30.60;42.30;;;;;;6886914;28;20441;-78
2022/07/14 12:15:42;;;;;;;3.03;1.20;;;30.70;42.70;;;;;;6873198;28;20469;-75
2022/07/14 12:19:04;;;;;;;4.25;1.55;;;30.80;42.80;;;;;;6866236;28;20440;-77
2022/07/14 12:22:26;;;;;;;3.63;1.00;;;30.90;43.20;;;;;;6859797;28;20475;-78
2022/07/14 12:25:49;;;;;;;3.17;1.05;;;31.00;42.80;;;;;;6859336;28;20464;-78
2022/07/14 12:29:13;;;;;;;2.92;1.30;;;31.00;43.40;;;;;;6858850;28;20479;-79
2022/07/14 12:32:36;;;;;;;3.17;1.10;;;31.10;43.40;;;;;;6859628;28;20479;-78
2022/07/14 12:36:01;;;;;;;3.75;1.10;;;31.20;42.90;;;;;;6859811;28;20443;-79
2022/07/14 12:39:24;;;;;;;4.07;1.13;;;31.30;42.90;;;;;;6886323;28;20489;-77
2022/07/14 12:42:47;;;;;;;3.60;1.00;;;31.40;42.30;;;;;;6859306;28;20446;-77
2022/07/14 12:46:16;;;;;;;3.17;1.20;;;31.50;42.00;;;;;;6858884;28;20531;-77
2022/07/14 12:49:46;;;;;;;2.90;1.17;;;31.50;41.90;;;;;;6858697;28;20452;-77
2022/07/14 12:53:10;;;;;;;2.63;0.90;;;31.60;41.70;;;;;;6856291;28;20452;-79
2022/07/14 12:56:34;;;;;;;3.10;1.10;;;31.80;41.20;;;;;;6858953;28;20443;-79
2022/07/14 12:59:56;;;;;;;4.20;1.13;;;31.80;40.20;;;;;;6842004;28;20501;-79
2022/07/14 13:03:21;;;;;;;4.88;1.13;;;31.90;40.40;;;;;;6831910;28;20478;-79
2022/07/14 13:06:45;;;;;;;4.80;1.10;;;31.90;40.90;;;;;;6832280;29;20448;-77
2022/07/14 13:10:10;;;;;;;4.65;1.35;;;32.00;40.10;;;;;;6855219;28;20491;-77
2022/07/14 13:13:37;;;;;;;2.90;1.20;;;32.10;40.10;;;;;;6857080;28;20946;-75
2022/07/14 13:16:59;;;;;;;3.90;1.13;;;32.20;41.10;;;;;;6856768;28;20912;-79
2022/07/14 13:20:52;;;;;;;3.75;1.17;;;32.40;41.50;;;;;;6857861;28;20468;-77
2022/07/14 13:24:17;;;;;;;4.10;1.33;;;32.40;41.70;;;;;;6857460;28;20490;-78
2022/07/14 13:27:39;;;;;;;3.10;1.02;;;32.50;41.20;;;;;;6856838;28;20444;-77
2022/07/14 13:31:02;;;;;;;2.50;1.10;;;32.40;40.80;;;;;;6857070;28;20499;-77
2022/07/14 13:34:25;;;;;;;3.80;1.20;;;32.20;41.60;;;;;;6858922;28;20450;-74
2022/07/14 13:37:49;;;;;;;5.22;1.20;;;32.10;41.70;;;;;;6850528;28;20451;-78
2022/07/14 13:41:15;;;;;;;2.80;1.10;;;32.10;41.00;;;;;;6860953;28;20475;-79
2022/07/14 13:44:37;;;;;;;3.53;1.10;;;32.10;41.00;;;;;;6844038;28;20436;-81
2022/07/14 13:47:59;;;;;;;4.20;1.02;;;32.30;40.60;;;;;;6843012;28;20440;-78
2022/07/14 13:55:03;;;;;;;5.18;1.27;;;32.30;41.90;;;;;;6842095;28;20448;-76
2022/07/14 13:58:25;;;;;;;3.93;0.93;;;32.40;42.50;;;;;;6851855;28;21004;-77
2022/07/14 14:01:47;;;;;;;4.17;1.00;;;32.50;40.90;;;;;;6855056;28;20804;-77
2022/07/14 14:05:09;;;;;;;4.50;1.30;;;32.60;42.30;;;;;;6864819;28;20448;-75
2022/07/14 14:08:35;;;;;;;5.57;1.10;;;32.60;43.20;;;;;;6859037;28;20495;-78
2022/07/14 14:11:59;;;;;;;5.43;1.20;;;32.70;44.10;;;;;;6855064;28;21000;-78
2022/07/14 14:15:21;;;;;;;5.25;1.23;;;32.90;42.50;;;;;;6856639;28;20466;-79
2022/07/14 14:18:43;;;;;;;4.40;1.10;;;33.20;42.90;;;;;;6874708;28;20486;-80
2022/07/14 14:22:05;;;;;;;6.80;1.40;;;33.30;43.00;;;;;;6855778;28;20448;-80
2022/07/14 14:25:28;;;;;;;5.32;1.20;;;33.50;42.10;;;;;;6852501;28;20439;-79
2022/07/14 14:28:51;;;;;;;3.70;1.10;;;33.40;41.60;;;;;;6864624;28;20494;-77
2022/07/14 14:32:13;;;;;;;3.83;1.20;;;33.10;42.30;;;;;;6855541;28;21042;-79
2022/07/14 14:35:36;;;;;;;3.90;1.10;;;33.20;42.00;;;;;;6879209;28;20514;-78
2022/07/14 14:38:58;;;;;;;3.70;1.10;;;33.40;42.60;;;;;;6860252;28;20491;-78
2022/07/14 14:42:20;;;;;;;4.38;1.20;;;33.80;43.80;;;;;;6853512;28;20479;-78
2022/07/14 14:45:46;;;;;;;5.00;1.20;;;34.00;42.10;;;;;;6851400;28;20436;-78
2022/07/14 14:49:08;;;;;;;6.30;1.30;;;34.20;41.20;;;;;;6859726;28;20490;-79
2022/07/14 14:52:30;;;;;;;4.50;1.20;;;34.30;42.10;;;;;;6851771;28;20752;-80
2022/07/14 14:55:52;;;;;;;4.95;1.20;;;34.50;42.70;;;;;;6870374;28;20527;-77
2022/07/14 14:59:14;;;;;;;5.05;1.17;;;34.70;42.30;;;;;;6855470;28;20436;-79
2022/07/14 15:02:38;;;;;;;3.60;1.30;;;34.80;41.80;;;;;;6853546;28;20440;-80
2022/07/14 15:06:00;;;;;;;4.50;1.20;;;34.90;42.10;;;;;;6856604;28;20443;-80
2022/07/14 15:09:23;;;;;;;4.17;1.40;;;34.90;41.80;;;;;;6854749;28;20451;-78
2022/07/14 15:12:46;;;;;;;3.78;1.23;;;34.90;41.30;;;;;;6852810;28;20941;-77
2022/07/14 15:16:08;;;;;;;5.90;1.40;;;35.00;41.40;;;;;;6853356;28;20526;-78
2022/07/14 15:19:32;;;;;;;5.30;1.38;;;35.20;40.30;;;;;;6857217;28;20455;-78
2022/07/14 15:22:54;;;;;;;4.20;1.27;;;35.40;41.30;;;;;;6854485;28;20447;-79
2022/07/14 15:26:16;;;;;;;5.00;1.33;;;35.10;39.70;;;;;;6856036;28;20443;-79
2022/07/14 15:29:39;;;;;;;6.00;1.58;;;35.10;40.30;;;;;;6884437;28;20940;-77
2022/07/14 15:33:01;;;;;;;3.60;1.30;;;35.30;41.40;;;;;;6864191;28;20454;-79
2022/07/14 15:36:32;;;;;;;4.03;1.20;;;35.50;40.50;;;;;;6861450;28;20519;-77
2022/07/14 15:43:34;;;;;;;6.17;1.27;;;35.00;42.00;;;;;;6861370;28;20925;-79
2022/07/14 15:46:57;;;;;;;4.53;1.30;;;35.00;42.50;;;;;;6861678;28;20447;-80
2022/07/14 15:50:19;;;;;;;5.50;1.50;;;35.00;41.70;;;;;;6858513;28;20500;-77
2022/07/14 15:53:42;;;;;;;4.03;1.30;;;34.80;43.10;;;;;;6860963;28;20922;-79
2022/07/14 15:57:05;;;;;;;4.18;1.40;;;34.80;42.90;;;;;;6840936;28;20468;-80
2022/07/14 16:00:28;;;;;;;3.37;1.20;;;34.60;42.90;;;;;;6845034;28;20460;-79
2022/07/14 16:03:50;;;;;;;4.45;1.40;;;34.20;42.40;;;;;;6858822;28;20440;-80
2022/07/14 16:07:12;;;;;;;5.18;1.40;;;34.10;43.50;;;;;;6859835;28;20482;-80
2022/07/14 16:10:36;;;;;;;4.95;1.40;;;34.20;43.30;;;;;;6832456;28;20621;-79
2022/07/14 16:13:58;;;;;;;4.22;1.30;;;34.30;42.60;;;;;;6851315;28;20468;-77
2022/07/14 16:17:20;;;;;;;4.45;1.40;;;33.90;42.90;;;;;;6851165;28;20471;-75
2022/07/14 16:20:42;;;;;;;5.10;1.40;;;33.60;43.50;;;;;;6850067;28;20447;-77
2022/07/14 16:24:06;;;;;;;4.25;1.40;;;33.50;43.90;;;;;;6847779;28;21006;-76
2022/07/14 16:27:29;;;;;;;4.90;1.50;;;33.30;44.20;;;;;;6831031;28;20441;-80
2022/07/14 16:30:51;;;;;;;4.40;1.50;;;33.30;44.90;;;;;;6833912;28;20528;-79
2022/07/14 16:34:13;;;;;;;4.60;1.58;;;33.20;45.60;;;;;;6838502;28;20937;-77
2022/07/14 16:37:35;;;;;;;6.53;1.50;;;33.10;45.80;;;;;;6853235;28;20479;-78
2022/07/14 16:40:58;;;;;;;5.55;1.52;;;33.30;46.50;;;;;;6844602;28;20481;-78
2022/07/14 16:44:21;;;;;;;5.50;1.47;;;33.30;46.30;;;;;;6859732;28;20439;-79
2022/07/14 16:47:44;;;;;;;4.75;1.60;;;33.10;46.50;;;;;;6859741;28;20486;-79
2022/07/14 16:51:06;;;;;;;5.63;1.60;;;32.80;47.40;;;;;;6836403;28;21027;-76
2022/07/14 16:54:28;;;;;;;6.13;1.70;;;32.60;48.40;;;;;;6832873;29;20485;-78
2022/07/14 16:57:50;;;;;;;6.85;1.90;;;32.40;49.40;;;;;;6832309;29;20488;-77
2022/07/14 17:01:13;;;;;;;6.63;1.70;;;32.00;49.90;;;;;;6832236;29;20477;-77
2022/07/14 17:04:36;;;;;;;7.18;2.08;;;32.00;50.80;;;;;;6846999;28;21026;-77
2022/07/14 17:07:58;;;;;;;6.53;2.10;;;31.90;50.80;;;;;;6850882;28;20497;-79
2022/07/14 17:11:22;;;;;;;9.10;2.20;;;31.80;51.30;;;;;;6832692;28;20899;-79
2022/07/14 17:14:44;;;;;;;7.40;2.10;;;31.70;52.00;;;;;;6843797;28;20481;-78
2022/07/14 17:18:08;;;;;;;7.47;2.20;;;31.60;52.00;;;;;;6826222;29;20486;-75
2022/07/14 17:21:30;;;;;;;6.10;2.23;;;31.50;52.80;;;;;;6826074;28;20482;-78
2022/07/14 17:24:52;;;;;;;7.70;2.22;;;31.60;52.60;;;;;;6830822;28;20623;-80
2022/07/14 17:28:15;;;;;;;7.45;2.35;;;31.40;52.90;;;;;;6837703;28;21074;-80
2022/07/14 17:31:37;;;;;;;4.93;2.10;;;31.30;53.20;;;;;;6834719;28;20456;-79
2022/07/14 17:35:01;;;;;;;5.93;2.40;;;31.30;53.80;;;;;;6853215;28;20601;-79
2022/07/14 17:38:23;;;;;;;8.07;2.20;;;31.40;53.20;;;;;;6849014;28;20475;-78
2022/07/14 17:41:45;;;;;;;7.53;2.33;;;31.50;54.00;;;;;;6844052;28;20796;-79
2022/07/14 17:45:09;;;;;;;8.93;2.80;;;31.40;54.80;;;;;;6841732;28;20528;-78
2022/07/14 17:48:31;;;;;;;6.50;2.45;;;31.30;54.30;;;;;;6843075;28;20448;-78
2022/07/14 17:52:13;;;;;;;6.50;2.53;;;31.10;55.00;;;;;;6859432;28;20519;-77
2022/07/14 17:55:35;;;;;;;6.90;2.28;;;31.10;54.60;;;;;;6854136;28;20443;-78
2022/07/14 17:58:57;;;;;;;6.00;2.40;;;31.00;55.10;;;;;;6857976;28;20600;-78
2022/07/14 18:02:19;;;;;;;5.83;2.60;;;30.90;55.40;;;;;;6858553;28;20474;-77